Time;durP1;ratioP1;P1;durP2;ratioP2;P2;SDS_P1;SDS_P2;PMS_P1;PMS_P2;Temp;Humidity;BMP_temperature;BMP_pressure;BME280_temperature;BME280_humidity;BME280_pressure;Samples;Min_cycle;Max_cycle;Signal;HPM_P1;HPM_P2
2021/12/04 00:00:22;;;;;;;2.70;0.80;;;;;;;18.38;50.67;99925.59;5092681;28;20028;-69
2021/12/04 00:02:48;;;;;;;2.35;0.90;;;;;;;18.36;50.50;99922.25;5091447;28;20036;-68
2021/12/04 00:05:13;;;;;;;3.22;1.05;;;;;;;18.32;50.69;99921.72;5092402;28;20501;-68
2021/12/04 00:07:39;;;;;;;1.88;0.80;;;;;;;18.29;50.46;99914.09;5092727;28;20107;-68
2021/12/04 00:10:05;;;;;;;1.77;0.80;;;;;;;18.29;50.30;99917.59;5092003;28;20115;-68
2021/12/04 00:12:32;;;;;;;2.67;0.80;;;;;;;18.25;50.71;99897.75;5092326;28;20429;-68
2021/12/04 00:14:57;;;;;;;4.00;0.90;;;;;;;18.24;50.34;99884.72;5092155;28;20023;-68
2021/12/04 00:17:23;;;;;;;2.55;0.80;;;;;;;18.21;50.32;99877.09;5091441;28;20085;-69
2021/12/04 00:19:49;;;;;;;2.50;1.00;;;;;;;18.21;50.50;99879.75;5091872;28;20047;-68
2021/12/04 00:22:14;;;;;;;2.88;1.00;;;;;;;18.17;50.67;99870.50;5092157;28;20077;-69
2021/12/04 00:24:40;;;;;;;1.33;0.77;;;;;;;18.17;50.67;99873.13;5091569;28;20039;-68
2021/12/04 00:27:05;;;;;;;2.13;0.90;;;;;;;18.13;50.75;99868.16;5092334;28;20028;-69
2021/12/04 00:29:31;;;;;;;1.75;0.85;;;;;;;18.13;50.59;99875.19;5092232;28;20024;-68
2021/12/04 00:32:00;;;;;;;3.55;1.35;;;;;;;18.09;50.81;99869.41;5091183;28;20379;-68
2021/12/04 00:34:27;;;;;;;3.85;1.05;;;;;;;18.09;50.49;99879.94;5092305;28;20040;-68
2021/12/04 00:50:48;;;;;;;1.73;0.80;;;;;;;17.96;50.92;99855.75;5096551;28;20038;-69
2021/12/04 00:53:14;;;;;;;2.70;1.10;;;;;;;17.95;50.82;99854.91;5095005;28;20024;-69
2021/12/04 00:55:39;;;;;;;2.53;0.88;;;;;;;17.93;50.77;99848.16;5095456;28;20331;-69
2021/12/04 00:58:04;;;;;;;2.77;1.03;;;;;;;17.91;50.87;99852.72;5094901;28;20032;-69
2021/12/04 01:00:30;;;;;;;1.63;0.82;;;;;;;17.90;50.78;99851.88;5095913;28;20276;-69
2021/12/04 01:02:55;;;;;;;2.05;0.80;;;;;;;17.88;50.62;99853.84;5095496;28;20032;-69
2021/12/04 01:05:21;;;;;;;2.53;0.90;;;;;;;17.87;50.83;99852.16;5094828;28;20501;-69
2021/12/04 01:07:46;;;;;;;2.58;0.73;;;;;;;17.85;50.83;99851.47;5095698;28;20020;-69
2021/12/04 01:10:11;;;;;;;2.42;0.90;;;;;;;17.83;50.84;99850.81;5095592;28;20437;-69
2021/12/04 01:12:37;;;;;;;2.58;0.80;;;;;;;17.83;51.18;99855.22;5095068;28;20036;-69
2021/12/04 01:15:04;;;;;;;3.20;0.98;;;;;;;17.81;51.06;99854.56;5095400;28;20016;-69
2021/12/04 01:17:29;;;;;;;1.75;0.73;;;;;;;17.81;51.14;99865.09;5095433;28;20078;-68
2021/12/04 01:19:54;;;;;;;2.13;0.70;;;;;;;17.79;51.14;99859.97;5094428;28;20048;-69
2021/12/04 01:22:21;;;;;;;2.08;0.90;;;;;;;17.76;51.11;99861.06;5095499;28;20034;-69
2021/12/04 01:24:47;;;;;;;2.08;0.80;;;;;;;17.76;51.02;99857.63;5095353;28;20103;-69
2021/12/04 01:27:14;;;;;;;2.38;0.90;;;;;;;17.73;50.99;99853.47;5094520;28;20036;-69
2021/12/04 01:29:40;;;;;;;3.55;1.02;;;;;;;17.74;51.40;99856.94;5095109;28;20036;-69
2021/12/04 01:32:08;;;;;;;3.50;0.85;;;;;;;17.73;51.31;99850.81;5095282;28;20036;-69
2021/12/04 01:34:34;;;;;;;2.25;0.82;;;;;;;17.71;51.23;99842.25;5094529;28;20111;-69
2021/12/04 01:37:00;;;;;;;2.63;0.80;;;;;;;17.70;51.19;99842.38;5094869;28;20118;-69
2021/12/04 01:39:25;;;;;;;2.20;0.80;;;;;;;17.69;50.92;99835.44;5095197;28;20074;-68
2021/12/04 01:41:51;;;;;;;2.23;0.80;;;;;;;17.68;51.06;99836.44;5094007;28;20055;-67
2021/12/04 01:44:16;;;;;;;1.27;0.80;;;;;;;17.68;51.01;99849.63;5095254;28;20272;-68
2021/12/04 01:46:42;;;;;;;3.58;0.75;;;;;;;17.65;51.40;99848.09;5094703;28;20540;-69
2021/12/04 01:49:07;;;;;;;2.90;0.95;;;;;;;17.64;51.45;99849.09;5094039;28;20448;-69
2021/12/04 01:51:33;;;;;;;1.80;0.73;;;;;;;17.63;51.04;99842.16;5094964;28;20036;-68
2021/12/04 01:53:58;;;;;;;1.85;0.90;;;;;;;17.62;51.35;99839.66;5093361;28;20016;-69
2021/12/04 01:56:26;;;;;;;2.25;0.85;;;;;;;17.61;51.37;99835.34;5094232;28;20505;-69
2021/12/04 01:58:53;;;;;;;2.30;0.80;;;;;;;17.60;51.48;99834.53;5094580;28;20111;-69
2021/12/04 02:01:18;;;;;;;3.03;0.90;;;;;;;17.57;51.18;99840.91;5093890;28;20020;-70
2021/12/04 02:03:43;;;;;;;2.00;0.80;;;;;;;17.57;51.19;99838.28;5094048;28;20020;-69
2021/12/04 02:06:09;;;;;;;4.15;1.10;;;;;;;17.56;51.23;99834.00;5094478;28;20337;-69
2021/12/04 02:08:34;;;;;;;3.17;1.17;;;;;;;17.55;51.24;99828.88;5093545;28;20020;-68
2021/12/04 02:11:00;;;;;;;2.13;1.00;;;;;;;17.55;51.43;99832.34;5094174;28;20135;-69
2021/12/04 02:13:26;;;;;;;2.58;0.80;;;;;;;17.56;51.37;99819.97;5094412;28;20028;-69
2021/12/04 02:15:53;;;;;;;1.85;0.80;;;;;;;17.49;51.98;99803.94;5093217;28;20044;-68
2021/12/04 02:18:20;;;;;;;2.05;0.73;;;;;;;17.55;52.01;99803.34;5094071;28;20040;-68
2021/12/04 02:20:47;;;;;;;3.00;0.80;;;;;;;17.56;52.38;99796.25;5093968;28;20032;-69
2021/12/04 02:23:13;;;;;;;2.00;0.80;;;;;;;17.57;52.36;99788.22;5093818;28;20028;-68
2021/12/04 02:25:38;;;;;;;3.22;0.98;;;;;;;17.59;52.51;99780.16;5094196;28;20024;-68
2021/12/04 02:28:05;;;;;;;1.38;0.82;;;;;;;17.61;52.51;99780.03;5093871;28;20425;-69
2021/12/04 02:30:34;;;;;;;1.52;0.70;;;;;;;17.64;52.05;99782.38;5093397;28;20575;-68
2021/12/04 02:32:59;;;;;;;0.85;0.63;;;;;;;17.65;51.86;99774.31;5093735;28;20420;-68
2021/12/04 02:35:26;;;;;;;2.10;1.00;;;;;;;17.65;51.88;99765.59;5094317;28;20036;-68
2021/12/04 02:37:52;;;;;;;2.22;0.90;;;;;;;17.67;52.18;99764.44;5093045;28;20380;-67
2021/12/04 02:40:22;;;;;;;1.38;0.80;;;;;;;17.68;51.70;99765.28;5094132;28;20372;-68
2021/12/04 02:42:48;;;;;;;1.63;0.80;;;;;;;17.68;52.03;99762.66;5094152;28;20102;-69
2021/12/04 02:45:15;;;;;;;2.55;0.90;;;;;;;17.69;51.78;99756.41;5093244;28;20028;-67
2021/12/04 02:47:41;;;;;;;2.83;0.80;;;;;;;17.66;51.44;99748.81;5093863;28;20032;-69
2021/12/04 02:50:09;;;;;;;1.55;0.80;;;;;;;17.69;51.66;99753.75;5093991;28;20107;-69
2021/12/04 02:52:36;;;;;;;3.45;0.85;;;;;;;17.68;51.61;99758.22;5093229;28;20020;-69
2021/12/04 02:55:03;;;;;;;1.90;0.80;;;;;;;17.67;51.73;99756.53;5093633;28;20035;-67
2021/12/04 02:57:28;;;;;;;2.20;0.88;;;;;;;17.68;51.74;99760.03;5093645;28;20040;-69
2021/12/04 02:59:55;;;;;;;2.20;0.93;;;;;;;17.68;51.31;99760.03;5093794;28;20034;-69
2021/12/04 03:02:21;;;;;;;2.28;0.90;;;;;;;17.67;51.24;99759.19;5094265;28;20046;-69
2021/12/04 03:04:52;;;;;;;2.55;1.05;;;;;;;17.68;51.29;99765.28;5093303;28;20032;-69
2021/12/04 03:07:19;;;;;;;2.50;0.90;;;;;;;17.66;51.45;99756.72;5094641;28;20092;-67
2021/12/04 03:09:45;;;;;;;1.77;0.90;;;;;;;17.65;51.77;99747.97;5094279;28;20390;-69
2021/12/04 03:12:12;;;;;;;2.00;0.82;;;;;;;17.66;51.76;99751.44;5093922;28;20024;-68
2021/12/04 03:14:38;;;;;;;2.03;0.75;;;;;;;17.66;52.05;99743.53;5094370;28;20059;-69
2021/12/04 03:17:04;;;;;;;2.95;0.75;;;;;;;17.67;52.17;99740.72;5094290;28;20035;-68
2021/12/04 03:19:30;;;;;;;2.53;0.80;;;;;;;17.69;52.47;99745.84;5093613;28;20068;-68
2021/12/04 03:21:56;;;;;;;2.35;0.80;;;;;;;17.71;52.09;99736.03;5094358;28;20031;-69
2021/12/04 03:24:22;;;;;;;4.57;0.80;;;;;;;17.72;52.14;99737.66;5094737;28;20028;-68
2021/12/04 03:26:50;;;;;;;3.05;0.73;;;;;;;17.72;52.10;99735.03;5093603;28;20053;-69
2021/12/04 03:29:21;;;;;;;2.17;0.80;;;;;;;17.71;52.06;99731.56;5094298;28;20059;-69
2021/12/04 03:40:06;;;;;;;1.45;0.70;;;;;;;17.72;51.56;99724.47;5094224;28;20134;-69
2021/12/04 03:42:32;;;;;;;1.20;0.60;;;;;;;17.71;51.56;99717.56;5094792;28;20028;-68
2021/12/04 03:44:58;;;;;;;2.38;0.70;;;;;;;17.71;51.90;99717.56;5094181;28;20369;-69
2021/12/04 03:47:23;;;;;;;1.63;0.68;;;;;;;17.70;51.52;99710.63;5093866;28;20027;-68
2021/12/04 03:49:50;;;;;;;2.05;0.60;;;;;;;17.68;51.88;99710.78;5095064;28;20024;-67
2021/12/04 03:52:15;;;;;;;2.17;0.85;;;;;;;17.68;51.47;99708.16;5093027;28;20115;-68
2021/12/04 03:54:41;;;;;;;2.83;0.85;;;;;;;17.67;51.86;99698.56;5091912;28;20128;-68
2021/12/04 03:57:07;;;;;;;2.55;0.82;;;;;;;17.63;51.49;99688.50;5093464;28;20073;-68
2021/12/04 03:59:40;;;;;;;2.40;0.70;;;;;;;17.66;51.82;99696.13;5093056;28;20493;-68
2021/12/04 04:02:08;;;;;;;1.02;0.63;;;;;;;17.65;51.42;99699.72;5091600;28;20038;-68
2021/12/04 04:04:33;;;;;;;1.80;0.63;;;;;;;17.65;51.47;99705.00;5091959;28;20079;-69
2021/12/04 04:06:59;;;;;;;2.65;0.73;;;;;;;17.65;52.18;99713.72;5091949;28;20076;-69
2021/12/04 04:09:25;;;;;;;3.47;0.95;;;;;;;17.65;52.37;99708.44;5091252;28;20455;-69
2021/12/04 04:11:51;;;;;;;2.30;0.80;;;;;;;17.67;52.07;99701.22;5091803;28;20028;-68
2021/12/04 04:14:17;;;;;;;1.98;0.75;;;;;;;17.66;52.22;99688.22;5091939;28;20027;-69
2021/12/04 04:16:42;;;;;;;2.35;1.20;;;;;;;17.69;52.33;99694.00;5091692;28;20076;-69
2021/12/04 04:19:08;;;;;;;3.45;0.73;;;;;;;17.70;52.35;99693.00;5095901;28;20047;-69
2021/12/04 04:21:41;;;;;;;2.83;0.70;;;;;;;17.70;51.91;99684.28;5096160;28;20082;-68
2021/12/04 04:24:12;;;;;;;1.77;0.70;;;;;;;17.70;52.08;99681.66;5095535;28;20095;-68
2021/12/04 04:26:38;;;;;;;1.00;0.57;;;;;;;17.68;52.15;99676.53;5095790;28;20058;-68
2021/12/04 04:29:04;;;;;;;1.40;0.60;;;;;;;17.69;51.98;99683.47;5095002;28;20036;-69
2021/12/04 04:31:31;;;;;;;2.08;0.60;;;;;;;17.68;52.02;99683.63;5095819;28;20039;-69
2021/12/04 04:34:07;;;;;;;2.25;0.80;;;;;;;17.68;52.03;99679.16;5095560;28;20017;-68
2021/12/04 04:58:13;;;;;;;1.27;0.60;;;;;;;17.76;51.79;99662.59;5094576;28;20127;-68
2021/12/04 05:11:37;;;;;;;2.45;0.68;;;;;;;17.72;51.63;99659.44;5094566;28;20082;-69
2021/12/04 05:14:04;;;;;;;1.80;0.70;;;;;;;17.73;51.82;99661.09;5095065;28;20031;-70
2021/12/04 05:16:39;;;;;;;2.35;0.60;;;;;;;17.70;51.72;99647.41;5095099;28;20043;-68
2021/12/04 05:19:12;;;;;;;1.65;0.68;;;;;;;17.71;52.29;99636.72;5094329;28;20044;-69
2021/12/04 05:21:37;;;;;;;2.50;0.65;;;;;;;17.73;52.52;99636.56;5095190;28;20028;-68
2021/12/04 05:24:03;;;;;;;3.00;0.80;;;;;;;17.73;52.61;99639.19;5095131;28;20387;-68
2021/12/04 05:26:29;;;;;;;1.75;0.60;;;;;;;17.76;52.65;99638.91;5094398;28;20030;-68
2021/12/04 05:28:59;;;;;;;1.42;0.80;;;;;;;17.77;52.60;99640.56;5094679;28;20031;-68
2021/12/04 05:31:24;;;;;;;2.15;0.77;;;;;;;17.77;52.50;99644.00;5095124;28;20056;-69
2021/12/04 05:33:50;;;;;;;0.68;0.50;;;;;;;17.77;52.36;99649.28;5093928;28;20063;-69
2021/12/04 05:36:16;;;;;;;2.72;0.70;;;;;;;17.78;52.01;99644.84;5094683;28;20052;-70
2021/12/04 05:38:41;;;;;;;2.70;0.70;;;;;;;17.79;52.17;99648.31;5094662;28;20483;-69
2021/12/04 05:41:08;;;;;;;0.93;0.50;;;;;;;17.77;52.24;99640.56;5094268;28;20036;-69
2021/12/04 05:43:34;;;;;;;1.42;0.50;;;;;;;17.78;52.36;99644.84;5094948;28;20082;-69
2021/12/04 05:46:18;;;;;;;4.05;0.70;;;;;;;17.76;51.82;99644.16;5095186;28;20058;-68
2021/12/04 05:48:54;;;;;;;3.63;0.70;;;;;;;17.76;51.74;99644.97;5094235;28;20427;-69
2021/12/04 05:54:45;;;;;;;1.02;0.60;;;;;;;17.76;52.71;99633.63;5071239;28;20043;-68
2021/12/04 05:57:11;;;;;;;1.23;0.50;;;;;;;17.76;52.53;99631.81;5094522;28;20379;-68
2021/12/04 05:59:37;;;;;;;0.80;0.43;;;;;;;17.79;52.50;99628.06;5094981;28;20074;-68
2021/12/04 06:02:02;;;;;;;2.88;0.73;;;;;;;17.80;52.56;99632.34;5093902;28;20020;-69
2021/12/04 06:04:28;;;;;;;1.48;0.50;;;;;;;17.81;52.46;99634.00;5094682;28;20020;-70
2021/12/04 06:06:53;;;;;;;1.52;0.57;;;;;;;17.82;52.31;99630.38;5094101;28;20031;-68
2021/12/04 06:09:19;;;;;;;2.30;0.70;;;;;;;17.84;52.54;99622.31;5093599;28;20378;-68
2021/12/04 06:11:45;;;;;;;1.70;0.52;;;;;;;17.86;51.96;99623.81;5093949;28;20040;-68
2021/12/04 06:14:10;;;;;;;2.35;0.50;;;;;;;17.87;52.08;99617.56;5094079;28;20387;-68
2021/12/04 06:16:36;;;;;;;1.45;0.50;;;;;;;17.88;51.91;99618.41;5093566;28;20035;-69
2021/12/04 06:19:11;;;;;;;3.58;0.70;;;;;;;17.90;51.63;99619.13;5093809;28;20411;-69
2021/12/04 06:24:21;;;;;;;0.65;0.50;;;;;;;17.93;51.68;99626.72;5094501;28;20126;-68
2021/12/04 06:26:46;;;;;;;1.25;0.60;;;;;;;17.94;51.19;99617.81;5093978;28;20065;-67
2021/12/04 06:29:11;;;;;;;0.68;0.35;;;;;;;17.95;50.92;99614.22;5093658;28;20031;-68
2021/12/04 06:31:37;;;;;;;1.42;0.50;;;;;;;17.95;50.71;99611.56;5093960;28;20036;-69
2021/12/04 06:34:02;;;;;;;1.23;0.40;;;;;;;17.97;51.00;99627.22;5093555;28;20030;-69
2021/12/04 06:36:27;;;;;;;2.20;0.68;;;;;;;17.98;51.24;99619.19;5092878;28;20707;-69
2021/12/04 06:38:54;;;;;;;1.85;0.60;;;;;;;17.99;51.01;99626.13;5093232;28;20020;-69
2021/12/04 06:41:19;;;;;;;2.13;0.60;;;;;;;18.02;50.76;99624.97;5093524;28;20429;-70
2021/12/04 06:43:49;;;;;;;2.65;0.60;;;;;;;18.02;51.02;99624.97;5092801;28;20513;-68
2021/12/04 06:46:17;;;;;;;4.03;0.98;;;;;;;18.03;50.97;99635.34;5093606;28;20073;-69
2021/12/04 06:49:00;;;;;;;1.25;0.50;;;;;;;18.04;51.31;99631.75;5093234;28;20028;-68
2021/12/04 06:51:33;;;;;;;1.48;0.60;;;;;;;18.05;51.32;99628.09;5092818;28;20035;-69
2021/12/04 06:54:05;;;;;;;2.60;0.60;;;;;;;18.07;50.58;99633.22;5093513;28;20108;-68
2021/12/04 06:56:34;;;;;;;1.60;0.57;;;;;;;18.06;50.58;99635.06;5093520;28;20046;-69
2021/12/04 06:59:05;;;;;;;2.05;0.57;;;;;;;18.09;50.43;99640.03;5092801;28;20107;-68
2021/12/04 07:01:30;;;;;;;2.45;0.60;;;;;;;18.09;50.54;99637.38;5093372;28;20320;-69
2021/12/04 07:03:56;;;;;;;1.27;0.50;;;;;;;18.10;50.84;99633.78;5092662;28;20024;-69
2021/12/04 07:06:21;;;;;;;1.73;0.50;;;;;;;18.11;50.92;99627.50;5093213;28;20493;-67
2021/12/04 07:08:46;;;;;;;2.38;0.68;;;;;;;18.12;50.97;99637.06;5093205;28;20030;-67
2021/12/04 07:11:12;;;;;;;1.35;0.50;;;;;;;18.12;51.11;99633.63;5092617;28;20036;-67
2021/12/04 07:13:37;;;;;;;1.23;0.40;;;;;;;18.12;51.01;99633.63;5093337;28;20509;-69
2021/12/04 07:16:05;;;;;;;3.03;0.57;;;;;;;18.14;51.03;99631.66;5092375;28;20288;-69
2021/12/04 07:18:32;;;;;;;2.50;0.70;;;;;;;18.14;50.99;99623.75;5091769;28;20043;-69
2021/12/04 07:20:57;;;;;;;1.83;0.60;;;;;;;18.12;50.72;99626.53;5092428;28;20103;-69
2021/12/04 07:23:23;;;;;;;2.60;0.70;;;;;;;18.14;49.30;99629.00;5092741;28;20055;-68
2021/12/04 07:25:48;;;;;;;2.83;0.80;;;;;;;18.11;48.05;99630.13;5091670;28;20398;-68
2021/12/04 07:28:14;;;;;;;1.73;0.52;;;;;;;18.11;49.47;99622.22;5092587;28;20032;-68
2021/12/04 07:30:39;;;;;;;3.50;0.52;;;;;;;18.12;48.89;99625.72;5092334;28;20054;-68
2021/12/04 07:33:04;;;;;;;2.47;0.60;;;;;;;18.13;49.02;99622.91;5092990;28;20494;-66
2021/12/04 07:35:30;;;;;;;1.35;0.60;;;;;;;18.16;49.33;99618.31;5091924;28;20020;-69
2021/12/04 07:37:55;;;;;;;3.45;0.77;;;;;;;18.20;49.33;99620.50;5092410;28;20130;-71
2021/12/04 07:40:20;;;;;;;3.67;0.60;;;;;;;18.23;49.46;99620.19;5092221;28;20040;-69
2021/12/04 07:42:45;;;;;;;1.30;0.60;;;;;;;18.25;49.32;99622.66;5093481;28;20032;-68
2021/12/04 07:45:11;;;;;;;1.48;0.57;;;;;;;18.25;49.30;99612.13;5094376;28;20032;-69
2021/12/04 07:47:36;;;;;;;3.83;1.17;;;;;;;18.27;49.52;99612.78;5093119;28;20475;-68
2021/12/04 07:50:05;;;;;;;3.10;0.60;;;;;;;18.28;49.54;99611.81;5097216;28;20027;-70
2021/12/04 07:52:30;;;;;;;3.75;0.80;;;;;;;18.30;49.47;99615.09;5098368;28;20431;-71
2021/12/04 07:54:55;;;;;;;2.67;0.55;;;;;;;18.30;49.62;99608.00;5097185;28;20455;-73
2021/12/04 07:57:21;;;;;;;2.33;0.70;;;;;;;18.31;49.92;99608.88;5098982;28;20062;-73
2021/12/04 07:59:46;;;;;;;1.83;0.60;;;;;;;18.32;49.69;99602.59;5100275;28;20097;-69
2021/12/04 08:02:12;;;;;;;2.00;0.60;;;;;;;18.33;49.67;99601.63;5100061;28;20126;-66
2021/12/04 08:04:38;;;;;;;1.50;0.47;;;;;;;18.36;49.41;99609.22;5097235;28;20276;-66
2021/12/04 08:07:03;;;;;;;1.48;0.65;;;;;;;18.38;49.78;99604.59;5092051;28;20024;-67
2021/12/04 08:09:28;;;;;;;3.13;0.60;;;;;;;18.39;49.71;99606.25;5092857;28;20020;-70
2021/12/04 08:11:54;;;;;;;1.92;0.63;;;;;;;18.38;49.49;99599.31;5092265;28;20051;-70
2021/12/04 08:14:19;;;;;;;2.30;0.70;;;;;;;18.40;49.67;99592.06;5091638;28;20024;-71
2021/12/04 08:16:46;;;;;;;3.03;0.93;;;;;;;18.41;49.56;99591.09;5092021;28;20479;-66
2021/12/04 08:19:12;;;;;;;3.33;0.80;;;;;;;18.42;49.76;99584.84;5092453;28;20058;-68
2021/12/04 08:21:38;;;;;;;1.65;0.55;;;;;;;18.44;49.79;99585.50;5091606;28;20099;-66
2021/12/04 08:24:06;;;;;;;2.83;0.70;;;;;;;18.46;50.27;99577.44;5091908;28;20037;-69
2021/12/04 08:26:31;;;;;;;2.50;0.65;;;;;;;18.45;50.29;99573.13;5092521;28;20036;-66
2021/12/04 08:28:57;;;;;;;2.35;0.60;;;;;;;18.47;50.42;99574.66;5090692;28;20038;-66
2021/12/04 08:31:22;;;;;;;2.35;0.65;;;;;;;18.47;50.15;99571.19;5091911;28;20116;-69
2021/12/04 08:33:47;;;;;;;3.95;0.68;;;;;;;18.48;50.32;99565.75;5092092;28;20069;-66
2021/12/04 08:36:13;;;;;;;2.22;0.70;;;;;;;18.48;49.93;99563.13;5091750;28;20123;-70
2021/12/04 08:38:38;;;;;;;2.28;0.70;;;;;;;18.47;50.34;99564.09;5092524;28;20028;-67
2021/12/04 08:41:04;;;;;;;3.33;0.70;;;;;;;18.49;50.11;99564.75;5092452;28;20051;-69
2021/12/04 08:43:30;;;;;;;3.47;1.42;;;;;;;18.48;50.55;99557.00;5091445;28;20050;-67
2021/12/04 08:45:59;;;;;;;2.90;0.90;;;;;;;18.49;50.62;99554.22;5091790;28;20439;-67
2021/12/04 08:48:25;;;;;;;3.80;1.67;;;;;;;18.42;45.27;99552.34;5092354;28;20024;-67
2021/12/04 08:50:51;;;;;;;3.58;1.00;;;;;;;18.36;48.66;99552.97;5091253;28;20432;-69
2021/12/04 08:53:16;;;;;;;2.00;0.82;;;;;;;18.33;50.12;99543.59;5092350;28;20035;-66
2021/12/04 08:55:43;;;;;;;3.72;0.82;;;;;;;18.34;49.89;99544.41;5091672;28;20391;-67
2021/12/04 08:58:09;;;;;;;2.85;0.80;;;;;;;18.33;50.24;99538.31;5091551;28;20514;-69
2021/12/04 09:00:46;;;;;;;3.00;0.85;;;;;;;18.37;50.41;99550.19;5092245;28;20023;-69
2021/12/04 09:03:12;;;;;;;1.85;0.77;;;;;;;18.38;50.67;99556.31;5093521;28;20499;-70
2021/12/04 09:05:40;;;;;;;3.05;0.82;;;;;;;18.37;50.65;99552.81;5096317;28;20042;-66
2021/12/04 09:08:07;;;;;;;4.50;0.80;;;;;;;18.39;49.81;99550.88;5096362;28;20055;-67
2021/12/04 09:10:32;;;;;;;3.50;0.70;;;;;;;18.39;50.66;99553.50;5095580;28;20065;-66
2021/12/04 09:12:58;;;;;;;2.45;0.90;;;;;;;18.39;50.50;99548.22;5096133;28;20059;-68
2021/12/04 09:15:27;;;;;;;3.97;1.10;;;;;;;18.40;50.54;99549.06;5096885;28;20099;-67
2021/12/04 09:17:53;;;;;;;3.55;0.70;;;;;;;18.40;50.52;99538.50;5095570;28;20444;-68
2021/12/04 09:20:18;;;;;;;2.83;0.90;;;;;;;18.41;51.07;99533.06;5096391;28;20036;-67
2021/12/04 09:22:45;;;;;;;3.97;0.80;;;;;;;18.42;50.46;99523.34;5095475;28;20023;-66
2021/12/04 09:25:16;;;;;;;2.40;0.60;;;;;;;18.42;50.77;99520.69;5095345;28;20024;-66
2021/12/04 09:36:28;;;;;;;2.72;0.77;;;;;;;18.41;50.75;99517.25;5095823;28;20387;-64
2021/12/04 10:12:01;;;;;;;1.93;0.67;;;;;;;18.41;51.08;99501.41;5094387;28;20142;-65
2021/12/04 10:17:45;;;;;;;3.22;0.90;;;;;;;18.42;50.93;99495.16;5093994;28;20498;-65
2021/12/04 10:23:21;;;;;;;3.80;0.70;;;;;;;18.43;51.14;99491.53;5093678;28;20063;-65
2021/12/04 10:33:58;;;;;;;2.78;0.70;;;;;;;18.42;51.12;99465.31;5093700;28;20111;-61
2021/12/04 10:36:29;;;;;;;4.13;0.90;;;;;;;18.43;51.21;99465.16;5092995;28;20475;-61
2021/12/04 10:38:55;;;;;;;2.35;0.90;;;;;;;18.43;50.76;99457.22;5093529;28;20107;-60
2021/12/04 10:41:39;;;;;;;3.75;0.88;;;;;;;18.44;50.78;99456.25;5093967;28;20115;-61
2021/12/04 10:44:20;;;;;;;;;;;;;;;18.43;51.05;99451.13;5093882;28;20038;-61
2021/12/04 10:46:59;;;;;;;4.57;1.20;;;;;;;18.44;51.08;99450.97;5093271;28;20287;-61
2021/12/04 10:49:38;;;;;;;3.00;0.80;;;;;;;18.43;51.10;99453.78;5092858;28;20020;-61
2021/12/04 10:52:06;;;;;;;2.15;0.80;;;;;;;18.42;51.13;99439.78;5093154;28;20076;-61
2021/12/04 10:54:38;;;;;;;4.80;1.10;;;;;;;18.41;51.54;99434.66;5093411;28;20107;-61
2021/12/04 10:57:51;;;;;;;2.40;0.80;;;;;;;18.41;51.02;99435.47;5092371;28;20074;-61
2021/12/04 11:02:56;;;;;;;2.75;0.70;;;;;;;18.41;51.83;99408.28;5092340;28;20116;-61
2021/12/04 11:19:00;;;;;;;2.45;0.80;;;;;;;18.39;52.34;99384.69;5091877;28;20095;-61
2021/12/04 11:21:49;;;;;;;3.92;0.93;;;;;;;18.39;51.63;99382.06;5093044;28;20059;-61
2021/12/04 11:40:32;;;;;;;2.72;0.80;;;;;;;18.42;51.28;99373.81;5092809;28;20506;-62
2021/12/04 11:43:03;;;;;;;3.90;0.80;;;;;;;18.43;51.68;99375.47;5092163;28;20040;-62
2021/12/04 11:46:00;;;;;;;2.70;0.80;;;;;;;18.43;51.14;99372.00;5091616;28;20028;-62
2021/12/04 11:48:37;;;;;;;3.35;1.00;;;;;;;18.42;51.32;99358.00;5092528;28;20020;-62
2021/12/04 11:51:10;;;;;;;2.28;1.05;;;;;;;18.40;51.23;99354.69;5092156;28;20020;-62
2021/12/04 11:53:35;;;;;;;4.30;1.75;;;;;;;18.41;51.20;99358.97;5092009;28;20093;-62
2021/12/04 11:56:01;;;;;;;7.47;2.50;;;;;;;18.40;50.91;99357.31;5090476;28;20467;-64
2021/12/04 11:58:32;;;;;;;6.20;3.53;;;;;;;18.40;50.79;99353.88;5092351;28;20032;-62
2021/12/04 12:01:06;;;;;;;6.90;4.68;;;;;;;18.40;50.94;99353.88;5091459;28;20145;-60
2021/12/04 12:03:33;;;;;;;8.82;4.85;;;;;;;18.43;50.64;99350.91;5092494;28;20036;-60
2021/12/04 12:06:03;;;;;;;9.35;5.75;;;;;;;18.43;51.38;99351.72;5092028;28;20393;-61
2021/12/04 12:08:42;;;;;;;10.35;5.20;;;;;;;18.43;50.45;99346.44;5092379;28;20027;-60
2021/12/04 12:11:19;;;;;;;8.25;4.80;;;;;;;18.44;50.78;99344.66;5092382;28;20085;-61
2021/12/04 12:13:57;;;;;;;7.93;4.93;;;;;;;18.44;51.67;99349.94;5091225;28;20024;-60
2021/12/04 12:16:32;;;;;;;7.53;4.82;;;;;;;18.43;51.61;99346.44;5092150;28;20561;-59
2021/12/04 12:19:04;;;;;;;9.63;4.43;;;;;;;18.43;51.74;99340.34;5091959;28;20066;-60
2021/12/04 12:22:01;;;;;;;7.57;3.85;;;;;;;18.41;51.56;99339.69;5091667;28;20020;-59
2021/12/04 12:33:28;;;;;;;7.60;3.40;;;;;;;18.40;51.52;99336.22;5091847;28;20407;-60
2021/12/04 12:36:05;;;;;;;5.35;2.85;;;;;;;18.45;51.58;99341.00;5089311;28;20032;-60
2021/12/04 12:38:57;;;;;;;6.60;3.40;;;;;;;18.44;51.80;99344.66;5094183;28;20024;-60
2021/12/04 12:41:31;;;;;;;7.47;3.08;;;;;;;18.42;51.97;99350.09;5095338;28;20048;-62
2021/12/04 12:43:57;;;;;;;7.97;3.15;;;;;;;18.42;51.76;99352.72;5096017;28;20020;-60
2021/12/04 12:46:51;;;;;;;6.80;2.83;;;;;;;18.43;51.91;99348.25;5096012;28;20048;-61
2021/12/04 12:49:19;;;;;;;6.75;2.80;;;;;;;18.43;51.92;99345.63;5095931;28;20106;-66
2021/12/04 12:51:56;;;;;;;5.88;2.85;;;;;;;18.52;52.42;99346.44;5096886;28;20055;-65
2021/12/04 12:54:32;;;;;;;5.22;2.20;;;;;;;18.65;52.32;99344.16;5096618;28;20117;-67
2021/12/04 12:57:05;;;;;;;4.70;2.17;;;;;;;18.76;52.08;99350.94;5094991;28;20028;-67
2021/12/04 12:59:41;;;;;;;5.18;2.00;;;;;;;18.77;51.95;99334.09;5096138;28;20026;-66
2021/12/04 13:13:43;;;;;;;6.20;2.20;;;;;;;18.98;51.61;99325.72;5095717;28;20055;-63
2021/12/04 13:16:32;;;;;;;10.30;2.28;;;;;;;19.10;51.48;99324.38;5095414;28;20040;-62
2021/12/04 13:19:04;;;;;;;5.55;1.88;;;;;;;19.20;51.48;99330.31;5095381;28;20044;-67
2021/12/04 13:21:32;;;;;;;5.05;2.03;;;;;;;19.26;51.05;99328.78;5096314;28;20548;-68
2021/12/04 13:23:58;;;;;;;5.07;2.20;;;;;;;19.29;50.20;99319.72;5094624;28;20357;-67
2021/12/04 13:26:29;;;;;;;4.10;2.00;;;;;;;19.32;50.48;99327.31;5095505;28;20111;-65
2021/12/04 13:28:58;;;;;;;4.80;1.90;;;;;;;19.34;50.66;99327.94;5095205;28;20537;-62
2021/12/04 13:31:23;;;;;;;5.18;1.70;;;;;;;19.38;50.62;99329.28;5094623;28;20032;-63
2021/12/04 13:33:52;;;;;;;4.25;1.77;;;;;;;19.42;50.43;99321.81;5095149;28;20103;-63
2021/12/04 13:36:20;;;;;;;3.63;1.60;;;;;;;19.42;50.53;99320.00;5095404;28;20026;-62
2021/12/04 13:38:49;;;;;;;3.42;1.63;;;;;;;19.45;50.38;99321.50;5096907;28;20395;-64
2021/12/04 13:41:15;;;;;;;4.68;1.90;;;;;;;19.45;50.51;99324.94;5100857;28;20105;-61
2021/12/04 13:43:40;;;;;;;5.75;1.70;;;;;;;19.45;50.43;99319.66;5098631;28;20063;-62
2021/12/04 13:46:07;;;;;;;4.03;1.98;;;;;;;19.45;49.42;99329.41;5095024;28;20036;-65
2021/12/04 13:48:35;;;;;;;4.38;2.05;;;;;;;19.38;49.65;99321.34;5094949;28;20032;-65
2021/12/04 13:51:01;;;;;;;4.30;1.50;;;;;;;19.29;50.34;99325.00;5094466;28;20486;-63
2021/12/04 13:53:36;;;;;;;4.93;1.58;;;;;;;19.19;50.55;99328.66;5094188;28;20028;-63
2021/12/04 13:56:11;;;;;;;4.53;1.60;;;;;;;19.11;50.94;99322.56;5094359;28;20371;-65
2021/12/04 13:58:44;;;;;;;6.32;1.85;;;;;;;19.03;51.13;99323.41;5094425;28;20021;-65
2021/12/04 14:01:09;;;;;;;5.70;1.63;;;;;;;18.96;51.50;99320.59;5094586;28;20483;-63
2021/12/04 14:03:37;;;;;;;5.70;1.60;;;;;;;18.91;51.51;99314.16;5094619;28;20032;-66
2021/12/04 14:06:04;;;;;;;4.88;2.00;;;;;;;18.85;51.57;99319.13;5093488;28;20514;-65
2021/12/04 14:08:30;;;;;;;4.97;1.70;;;;;;;18.81;51.98;99315.13;5094430;28;20030;-63
2021/12/04 14:10:55;;;;;;;4.85;1.33;;;;;;;18.79;52.21;99324.22;5094373;28;20378;-64
2021/12/04 14:13:24;;;;;;;;;;;;;;;18.75;51.98;99328.97;5094767;28;19916;-61
2021/12/04 14:15:52;;;;;;;2.70;1.40;;;;;;;18.72;52.21;99317.94;5093829;28;20359;-65
2021/12/04 14:18:21;;;;;;;4.50;1.55;;;;;;;18.71;52.31;99321.56;5094044;28;20047;-65
2021/12/04 14:20:49;;;;;;;4.05;1.80;;;;;;;18.69;51.95;99329.63;5093016;28;20516;-65
2021/12/04 14:23:15;;;;;;;4.75;1.67;;;;;;;18.67;52.57;99324.56;5093935;28;20463;-66
2021/12/04 14:25:43;;;;;;;5.28;1.50;;;;;;;18.64;52.19;99331.94;5093596;28;20032;-64
2021/12/04 14:28:13;;;;;;;3.08;1.48;;;;;;;18.63;52.10;99338.25;5093301;28;20085;-64